sensor_id;sensor_type;location;lat;lon;timestamp;P1;durP1;ratioP1;P2;durP2;ratioP2
52586;SDS011;38480;52.724;6.436;2023-08-08T00:01:27;7.50;;;5.27;;
52586;SDS011;38480;52.724;6.436;2023-08-08T00:03:53;10.60;;;4.67;;
52586;SDS011;38480;52.724;6.436;2023-08-08T00:06:19;10.03;;;4.57;;
52586;SDS011;38480;52.724;6.436;2023-08-08T00:08:45;12.67;;;4.73;;
52586;SDS011;38480;52.724;6.436;2023-08-08T00:11:11;5.90;;;4.30;;
52586;SDS011;38480;52.724;6.436;2023-08-08T00:13:37;8.03;;;4.93;;
52586;SDS011;38480;52.724;6.436;2023-08-08T00:16:03;10.87;;;4.63;;
52586;SDS011;38480;52.724;6.436;2023-08-08T00:18:30;7.97;;;4.47;;
52586;SDS011;38480;52.724;6.436;2023-08-08T00:20:56;11.00;;;4.67;;
52586;SDS011;38480;52.724;6.436;2023-08-08T00:23:22;7.37;;;4.23;;
52586;SDS011;38480;52.724;6.436;2023-08-08T00:25:48;11.63;;;4.90;;
52586;SDS011;38480;52.724;6.436;2023-08-08T00:28:16;7.40;;;4.43;;
52586;SDS011;38480;52.724;6.436;2023-08-08T00:30:42;10.13;;;4.77;;
52586;SDS011;38480;52.724;6.436;2023-08-08T00:33:08;11.23;;;5.23;;
52586;SDS011;38480;52.724;6.436;2023-08-08T00:35:34;12.97;;;6.10;;
52586;SDS011;38480;52.724;6.436;2023-08-08T00:38:00;13.33;;;6.60;;
52586;SDS011;38480;52.724;6.436;2023-08-08T00:40:26;10.17;;;5.50;;
52586;SDS011;38480;52.724;6.436;2023-08-08T00:42:52;10.30;;;4.83;;
52586;SDS011;38480;52.724;6.436;2023-08-08T00:45:18;10.33;;;5.40;;
52586;SDS011;38480;52.724;6.436;2023-08-08T00:47:44;12.87;;;5.90;;
52586;SDS011;38480;52.724;6.436;2023-08-08T00:50:10;8.47;;;5.63;;
52586;SDS011;38480;52.724;6.436;2023-08-08T00:52:37;8.57;;;5.37;;
52586;SDS011;38480;52.724;6.436;2023-08-08T00:55:04;9.87;;;5.50;;
52586;SDS011;38480;52.724;6.436;2023-08-08T00:57:30;8.30;;;5.43;;
52586;SDS011;38480;52.724;6.436;2023-08-08T00:59:57;9.27;;;5.57;;
52586;SDS011;38480;52.724;6.436;2023-08-08T01:02:23;12.23;;;5.33;;
52586;SDS011;38480;52.724;6.436;2023-08-08T01:04:49;8.00;;;5.20;;
52586;SDS011;38480;52.724;6.436;2023-08-08T01:07:33;10.50;;;5.60;;
52586;SDS011;38480;52.724;6.436;2023-08-08T01:10:06;10.57;;;5.13;;
52586;SDS011;38480;52.724;6.436;2023-08-08T01:12:36;11.97;;;5.73;;
52586;SDS011;38480;52.724;6.436;2023-08-08T01:15:04;10.80;;;5.53;;
52586;SDS011;38480;52.724;6.436;2023-08-08T01:17:33;14.00;;;5.73;;
52586;SDS011;38480;52.724;6.436;2023-08-08T01:20:00;8.27;;;5.10;;
52586;SDS011;38480;52.724;6.436;2023-08-08T01:22:27;9.77;;;6.17;;
52586;SDS011;38480;52.724;6.436;2023-08-08T01:24:55;11.20;;;5.80;;
52586;SDS011;38480;52.724;6.436;2023-08-08T01:27:22;12.33;;;6.40;;
52586;SDS011;38480;52.724;6.436;2023-08-08T01:29:48;10.63;;;5.70;;
52586;SDS011;38480;52.724;6.436;2023-08-08T01:32:14;22.93;;;6.40;;
52586;SDS011;38480;52.724;6.436;2023-08-08T01:34:40;10.50;;;5.57;;
52586;SDS011;38480;52.724;6.436;2023-08-08T01:39:32;12.03;;;5.77;;
52586;SDS011;38480;52.724;6.436;2023-08-08T01:41:59;11.57;;;6.30;;
52586;SDS011;38480;52.724;6.436;2023-08-08T01:44:26;12.07;;;7.07;;
52586;SDS011;38480;52.724;6.436;2023-08-08T01:46:53;11.07;;;5.70;;
52586;SDS011;38480;52.724;6.436;2023-08-08T01:49:19;12.77;;;6.67;;
52586;SDS011;38480;52.724;6.436;2023-08-08T01:51:45;15.90;;;6.90;;
52586;SDS011;38480;52.724;6.436;2023-08-08T01:54:11;13.73;;;6.13;;
52586;SDS011;38480;52.724;6.436;2023-08-08T01:56:37;17.27;;;6.93;;
52586;SDS011;38480;52.724;6.436;2023-08-08T01:59:03;14.23;;;5.50;;
52586;SDS011;38480;52.724;6.436;2023-08-08T02:01:29;13.53;;;7.17;;
52586;SDS011;38480;52.724;6.436;2023-08-08T02:03:55;13.37;;;6.00;;
52586;SDS011;38480;52.724;6.436;2023-08-08T02:06:21;12.13;;;6.03;;
52586;SDS011;38480;52.724;6.436;2023-08-08T02:08:47;15.80;;;8.10;;
52586;SDS011;38480;52.724;6.436;2023-08-08T02:11:13;14.30;;;6.67;;
52586;SDS011;38480;52.724;6.436;2023-08-08T02:13:39;14.03;;;6.50;;
52586;SDS011;38480;52.724;6.436;2023-08-08T02:16:05;16.17;;;7.03;;
52586;SDS011;38480;52.724;6.436;2023-08-08T02:18:31;12.27;;;6.30;;
52586;SDS011;38480;52.724;6.436;2023-08-08T02:20:57;12.80;;;6.83;;
52586;SDS011;38480;52.724;6.436;2023-08-08T02:23:23;20.27;;;7.33;;
52586;SDS011;38480;52.724;6.436;2023-08-08T02:25:49;14.53;;;7.13;;
52586;SDS011;38480;52.724;6.436;2023-08-08T02:28:15;17.17;;;7.27;;
52586;SDS011;38480;52.724;6.436;2023-08-08T02:30:41;15.70;;;7.73;;
52586;SDS011;38480;52.724;6.436;2023-08-08T02:33:07;11.37;;;7.37;;
52586;SDS011;38480;52.724;6.436;2023-08-08T02:35:33;18.73;;;7.40;;
52586;SDS011;38480;52.724;6.436;2023-08-08T02:37:59;14.53;;;8.00;;
52586;SDS011;38480;52.724;6.436;2023-08-08T02:40:25;18.10;;;7.27;;
52586;SDS011;38480;52.724;6.436;2023-08-08T02:42:52;15.87;;;8.07;;
52586;SDS011;38480;52.724;6.436;2023-08-08T02:45:18;16.00;;;7.60;;
52586;SDS011;38480;52.724;6.436;2023-08-08T02:47:43;13.73;;;8.10;;
52586;SDS011;38480;52.724;6.436;2023-08-08T02:50:09;15.07;;;7.93;;
52586;SDS011;38480;52.724;6.436;2023-08-08T02:52:35;15.30;;;7.13;;
52586;SDS011;38480;52.724;6.436;2023-08-08T02:55:01;26.30;;;8.77;;
52586;SDS011;38480;52.724;6.436;2023-08-08T02:57:27;15.43;;;7.60;;
52586;SDS011;38480;52.724;6.436;2023-08-08T02:59:54;17.43;;;7.73;;
52586;SDS011;38480;52.724;6.436;2023-08-08T03:02:19;17.47;;;8.73;;
52586;SDS011;38480;52.724;6.436;2023-08-08T03:04:45;12.17;;;8.30;;
52586;SDS011;38480;52.724;6.436;2023-08-08T03:07:11;17.00;;;7.50;;
52586;SDS011;38480;52.724;6.436;2023-08-08T03:09:37;23.00;;;9.40;;
52586;SDS011;38480;52.724;6.436;2023-08-08T03:12:03;13.00;;;6.90;;
52586;SDS011;38480;52.724;6.436;2023-08-08T03:14:30;12.93;;;8.00;;
52586;SDS011;38480;52.724;6.436;2023-08-08T03:16:56;13.70;;;7.67;;
52586;SDS011;38480;52.724;6.436;2023-08-08T03:19:21;12.60;;;6.90;;
52586;SDS011;38480;52.724;6.436;2023-08-08T03:21:47;15.17;;;6.80;;
52586;SDS011;38480;52.724;6.436;2023-08-08T03:24:13;14.00;;;7.80;;
52586;SDS011;38480;52.724;6.436;2023-08-08T03:26:39;14.67;;;6.70;;
52586;SDS011;38480;52.724;6.436;2023-08-08T03:29:05;13.57;;;6.63;;
52586;SDS011;38480;52.724;6.436;2023-08-08T03:31:35;10.70;;;6.20;;
52586;SDS011;38480;52.724;6.436;2023-08-08T03:34:01;14.10;;;6.47;;
52586;SDS011;38480;52.724;6.436;2023-08-08T03:36:26;10.13;;;5.67;;
52586;SDS011;38480;52.724;6.436;2023-08-08T03:38:52;10.57;;;5.50;;
52586;SDS011;38480;52.724;6.436;2023-08-08T03:41:18;13.37;;;5.83;;
52586;SDS011;38480;52.724;6.436;2023-08-08T03:43:44;12.03;;;5.03;;
52586;SDS011;38480;52.724;6.436;2023-08-08T03:46:10;13.87;;;5.33;;
52586;SDS011;38480;52.724;6.436;2023-08-08T03:48:37;13.67;;;5.90;;
52586;SDS011;38480;52.724;6.436;2023-08-08T03:51:03;9.80;;;4.43;;
52586;SDS011;38480;52.724;6.436;2023-08-08T03:53:29;8.60;;;4.23;;
52586;SDS011;38480;52.724;6.436;2023-08-08T03:55:55;16.60;;;4.67;;
52586;SDS011;38480;52.724;6.436;2023-08-08T03:58:21;9.03;;;4.13;;
52586;SDS011;38480;52.724;6.436;2023-08-08T04:00:47;13.53;;;3.93;;
52586;SDS011;38480;52.724;6.436;2023-08-08T04:03:13;7.87;;;4.03;;
52586;SDS011;38480;52.724;6.436;2023-08-08T04:05:40;12.47;;;4.50;;
52586;SDS011;38480;52.724;6.436;2023-08-08T04:08:06;8.40;;;3.70;;
52586;SDS011;38480;52.724;6.436;2023-08-08T04:10:32;9.80;;;3.60;;
52586;SDS011;38480;52.724;6.436;2023-08-08T04:12:58;16.10;;;4.30;;
52586;SDS011;38480;52.724;6.436;2023-08-08T04:15:24;11.40;;;3.37;;
52586;SDS011;38480;52.724;6.436;2023-08-08T04:17:50;11.87;;;3.57;;
52586;SDS011;38480;52.724;6.436;2023-08-08T04:20:16;9.97;;;3.40;;
52586;SDS011;38480;52.724;6.436;2023-08-08T04:22:42;9.93;;;3.50;;
52586;SDS011;38480;52.724;6.436;2023-08-08T04:25:08;13.23;;;4.10;;
52586;SDS011;38480;52.724;6.436;2023-08-08T04:27:34;10.93;;;3.80;;
52586;SDS011;38480;52.724;6.436;2023-08-08T04:30:00;12.17;;;3.60;;
52586;SDS011;38480;52.724;6.436;2023-08-08T04:32:26;10.60;;;3.47;;
52586;SDS011;38480;52.724;6.436;2023-08-08T04:34:52;10.77;;;3.43;;
52586;SDS011;38480;52.724;6.436;2023-08-08T04:37:18;17.07;;;3.33;;
52586;SDS011;38480;52.724;6.436;2023-08-08T04:39:44;10.23;;;2.73;;
52586;SDS011;38480;52.724;6.436;2023-08-08T04:42:10;10.40;;;2.97;;
52586;SDS011;38480;52.724;6.436;2023-08-08T04:44:36;11.40;;;2.80;;
52586;SDS011;38480;52.724;6.436;2023-08-08T04:47:02;9.50;;;2.57;;
52586;SDS011;38480;52.724;6.436;2023-08-08T04:49:28;7.37;;;2.73;;
52586;SDS011;38480;52.724;6.436;2023-08-08T04:51:54;7.27;;;2.33;;
52586;SDS011;38480;52.724;6.436;2023-08-08T04:54:20;12.27;;;2.83;;
52586;SDS011;38480;52.724;6.436;2023-08-08T04:56:46;6.87;;;2.30;;
52586;SDS011;38480;52.724;6.436;2023-08-08T04:59:12;10.13;;;2.40;;
52586;SDS011;38480;52.724;6.436;2023-08-08T05:01:38;8.40;;;2.67;;
52586;SDS011;38480;52.724;6.436;2023-08-08T05:04:03;7.63;;;2.37;;
52586;SDS011;38480;52.724;6.436;2023-08-08T05:06:30;12.10;;;2.80;;
52586;SDS011;38480;52.724;6.436;2023-08-08T05:08:56;11.50;;;2.60;;
52586;SDS011;38480;52.724;6.436;2023-08-08T05:11:22;10.73;;;2.60;;
52586;SDS011;38480;52.724;6.436;2023-08-08T05:13:48;5.10;;;2.27;;
52586;SDS011;38480;52.724;6.436;2023-08-08T05:16:14;11.37;;;2.67;;
52586;SDS011;38480;52.724;6.436;2023-08-08T05:18:40;13.90;;;2.77;;
52586;SDS011;38480;52.724;6.436;2023-08-08T05:21:09;8.83;;;2.13;;
52586;SDS011;38480;52.724;6.436;2023-08-08T05:23:35;10.20;;;2.07;;
52586;SDS011;38480;52.724;6.436;2023-08-08T05:26:01;11.53;;;3.70;;
52586;SDS011;38480;52.724;6.436;2023-08-08T05:28:28;7.40;;;1.87;;
52586;SDS011;38480;52.724;6.436;2023-08-08T05:30:54;6.57;;;2.00;;
52586;SDS011;38480;52.724;6.436;2023-08-08T05:33:21;7.57;;;2.00;;
52586;SDS011;38480;52.724;6.436;2023-08-08T05:35:47;9.87;;;2.10;;
52586;SDS011;38480;52.724;6.436;2023-08-08T05:38:13;10.63;;;2.03;;
52586;SDS011;38480;52.724;6.436;2023-08-08T05:40:39;5.67;;;1.67;;
52586;SDS011;38480;52.724;6.436;2023-08-08T05:43:05;6.17;;;2.30;;
52586;SDS011;38480;52.724;6.436;2023-08-08T05:45:31;7.30;;;1.83;;
52586;SDS011;38480;52.724;6.436;2023-08-08T05:47:57;8.70;;;1.83;;
52586;SDS011;38480;52.724;6.436;2023-08-08T05:50:25;12.00;;;2.33;;
52586;SDS011;38480;52.724;6.436;2023-08-08T05:52:52;10.23;;;2.50;;
52586;SDS011;38480;52.724;6.436;2023-08-08T05:55:18;10.40;;;2.30;;
52586;SDS011;38480;52.724;6.436;2023-08-08T05:57:44;9.13;;;2.13;;
52586;SDS011;38480;52.724;6.436;2023-08-08T06:00:10;7.23;;;1.90;;
52586;SDS011;38480;52.724;6.436;2023-08-08T06:02:36;10.43;;;2.07;;
52586;SDS011;38480;52.724;6.436;2023-08-08T06:05:03;8.27;;;1.80;;
52586;SDS011;38480;52.724;6.436;2023-08-08T06:07:29;6.90;;;2.70;;
52586;SDS011;38480;52.724;6.436;2023-08-08T06:09:55;9.00;;;1.87;;
52586;SDS011;38480;52.724;6.436;2023-08-08T06:12:21;6.93;;;1.43;;
52586;SDS011;38480;52.724;6.436;2023-08-08T06:14:47;9.87;;;1.90;;
52586;SDS011;38480;52.724;6.436;2023-08-08T06:17:13;7.63;;;2.57;;
52586;SDS011;38480;52.724;6.436;2023-08-08T06:19:39;7.53;;;1.83;;
52586;SDS011;38480;52.724;6.436;2023-08-08T06:22:05;6.80;;;1.70;;
52586;SDS011;38480;52.724;6.436;2023-08-08T06:24:32;9.70;;;1.90;;
52586;SDS011;38480;52.724;6.436;2023-08-08T06:26:58;7.30;;;1.63;;
52586;SDS011;38480;52.724;6.436;2023-08-08T06:29:24;10.50;;;2.03;;
52586;SDS011;38480;52.724;6.436;2023-08-08T06:31:50;5.70;;;1.80;;
52586;SDS011;38480;52.724;6.436;2023-08-08T06:34:16;7.53;;;1.90;;
52586;SDS011;38480;52.724;6.436;2023-08-08T06:36:42;9.83;;;1.90;;
52586;SDS011;38480;52.724;6.436;2023-08-08T06:39:08;9.67;;;1.40;;
52586;SDS011;38480;52.724;6.436;2023-08-08T06:41:34;6.73;;;2.27;;
52586;SDS011;38480;52.724;6.436;2023-08-08T06:44:00;6.13;;;1.53;;
52586;SDS011;38480;52.724;6.436;2023-08-08T06:46:26;6.23;;;1.07;;
52586;SDS011;38480;52.724;6.436;2023-08-08T06:48:52;11.10;;;2.30;;
52586;SDS011;38480;52.724;6.436;2023-08-08T06:51:22;4.87;;;1.60;;
52586;SDS011;38480;52.724;6.436;2023-08-08T06:53:48;8.67;;;1.93;;
52586;SDS011;38480;52.724;6.436;2023-08-08T06:56:14;6.97;;;1.30;;
52586;SDS011;38480;52.724;6.436;2023-08-08T06:58:40;4.07;;;0.93;;
52586;SDS011;38480;52.724;6.436;2023-08-08T07:01:06;6.77;;;1.30;;
52586;SDS011;38480;52.724;6.436;2023-08-08T07:03:32;7.20;;;1.53;;
52586;SDS011;38480;52.724;6.436;2023-08-08T07:05:58;9.07;;;1.33;;
52586;SDS011;38480;52.724;6.436;2023-08-08T07:08:25;6.77;;;1.80;;
52586;SDS011;38480;52.724;6.436;2023-08-08T07:10:51;8.73;;;2.27;;
52586;SDS011;38480;52.724;6.436;2023-08-08T07:13:17;5.60;;;1.07;;
52586;SDS011;38480;52.724;6.436;2023-08-08T07:15:43;7.37;;;1.50;;
52586;SDS011;38480;52.724;6.436;2023-08-08T07:18:09;4.60;;;0.90;;
52586;SDS011;38480;52.724;6.436;2023-08-08T07:20:35;4.97;;;1.13;;
52586;SDS011;38480;52.724;6.436;2023-08-08T07:23:01;4.87;;;1.40;;
52586;SDS011;38480;52.724;6.436;2023-08-08T07:25:27;8.23;;;1.03;;
52586;SDS011;38480;52.724;6.436;2023-08-08T07:27:54;5.00;;;1.33;;
52586;SDS011;38480;52.724;6.436;2023-08-08T07:30:20;8.93;;;1.30;;
52586;SDS011;38480;52.724;6.436;2023-08-08T07:32:46;5.73;;;1.07;;
52586;SDS011;38480;52.724;6.436;2023-08-08T07:35:12;8.57;;;1.37;;
52586;SDS011;38480;52.724;6.436;2023-08-08T07:37:38;7.07;;;1.00;;
52586;SDS011;38480;52.724;6.436;2023-08-08T07:40:13;6.13;;;1.53;;
52586;SDS011;38480;52.724;6.436;2023-08-08T07:42:39;4.20;;;1.10;;
52586;SDS011;38480;52.724;6.436;2023-08-08T07:45:05;4.77;;;1.10;;
52586;SDS011;38480;52.724;6.436;2023-08-08T07:47:31;4.67;;;1.20;;
52586;SDS011;38480;52.724;6.436;2023-08-08T07:49:57;3.57;;;1.07;;
52586;SDS011;38480;52.724;6.436;2023-08-08T07:52:23;4.83;;;1.77;;
52586;SDS011;38480;52.724;6.436;2023-08-08T07:54:49;7.10;;;1.20;;
52586;SDS011;38480;52.724;6.436;2023-08-08T07:57:15;5.20;;;1.20;;
52586;SDS011;38480;52.724;6.436;2023-08-08T07:59:41;5.70;;;1.07;;
52586;SDS011;38480;52.724;6.436;2023-08-08T08:02:07;7.87;;;1.27;;
52586;SDS011;38480;52.724;6.436;2023-08-08T08:04:33;8.40;;;1.17;;
52586;SDS011;38480;52.724;6.436;2023-08-08T08:07:00;2.73;;;1.00;;
52586;SDS011;38480;52.724;6.436;2023-08-08T08:09:27;7.57;;;1.00;;
52586;SDS011;38480;52.724;6.436;2023-08-08T08:11:53;6.53;;;1.30;;
52586;SDS011;38480;52.724;6.436;2023-08-08T08:14:19;2.47;;;0.80;;
52586;SDS011;38480;52.724;6.436;2023-08-08T08:16:45;6.20;;;0.87;;
52586;SDS011;38480;52.724;6.436;2023-08-08T08:19:11;6.53;;;1.30;;
52586;SDS011;38480;52.724;6.436;2023-08-08T08:21:38;3.00;;;1.10;;
52586;SDS011;38480;52.724;6.436;2023-08-08T08:24:04;5.70;;;1.43;;
52586;SDS011;38480;52.724;6.436;2023-08-08T08:26:30;3.07;;;1.10;;
52586;SDS011;38480;52.724;6.436;2023-08-08T08:28:57;6.67;;;0.97;;
52586;SDS011;38480;52.724;6.436;2023-08-08T08:31:23;5.60;;;1.17;;
52586;SDS011;38480;52.724;6.436;2023-08-08T08:33:49;6.63;;;1.30;;
52586;SDS011;38480;52.724;6.436;2023-08-08T08:36:15;3.70;;;0.80;;
52586;SDS011;38480;52.724;6.436;2023-08-08T08:38:41;6.50;;;1.17;;
52586;SDS011;38480;52.724;6.436;2023-08-08T08:41:08;5.13;;;1.20;;
52586;SDS011;38480;52.724;6.436;2023-08-08T08:43:35;3.87;;;0.87;;
52586;SDS011;38480;52.724;6.436;2023-08-08T08:46:01;8.73;;;1.17;;
52586;SDS011;38480;52.724;6.436;2023-08-08T08:48:28;6.03;;;1.00;;
52586;SDS011;38480;52.724;6.436;2023-08-08T08:50:54;7.27;;;1.97;;
52586;SDS011;38480;52.724;6.436;2023-08-08T08:53:22;6.17;;;0.80;;
52586;SDS011;38480;52.724;6.436;2023-08-08T08:55:48;3.53;;;1.33;;
52586;SDS011;38480;52.724;6.436;2023-08-08T08:58:15;4.27;;;0.80;;
52586;SDS011;38480;52.724;6.436;2023-08-08T09:00:43;8.13;;;1.10;;
52586;SDS011;38480;52.724;6.436;2023-08-08T09:03:09;6.23;;;1.00;;
52586;SDS011;38480;52.724;6.436;2023-08-08T09:05:35;5.47;;;1.20;;
52586;SDS011;38480;52.724;6.436;2023-08-08T09:08:01;5.00;;;1.40;;
52586;SDS011;38480;52.724;6.436;2023-08-08T09:10:27;5.50;;;1.10;;
52586;SDS011;38480;52.724;6.436;2023-08-08T09:12:56;4.23;;;0.97;;
52586;SDS011;38480;52.724;6.436;2023-08-08T09:15:24;6.50;;;1.10;;
52586;SDS011;38480;52.724;6.436;2023-08-08T09:17:50;4.03;;;1.10;;
52586;SDS011;38480;52.724;6.436;2023-08-08T09:20:16;3.87;;;1.10;;
52586;SDS011;38480;52.724;6.436;2023-08-08T09:22:42;3.63;;;1.00;;
52586;SDS011;38480;52.724;6.436;2023-08-08T09:25:09;5.03;;;0.80;;
52586;SDS011;38480;52.724;6.436;2023-08-08T09:27:35;5.13;;;1.00;;
52586;SDS011;38480;52.724;6.436;2023-08-08T09:30:01;3.47;;;0.87;;
52586;SDS011;38480;52.724;6.436;2023-08-08T09:32:28;3.80;;;0.90;;
52586;SDS011;38480;52.724;6.436;2023-08-08T09:34:55;8.67;;;1.33;;
52586;SDS011;38480;52.724;6.436;2023-08-08T09:37:22;3.93;;;1.23;;
52586;SDS011;38480;52.724;6.436;2023-08-08T09:39:55;4.87;;;1.10;;
52586;SDS011;38480;52.724;6.436;2023-08-08T09:42:21;3.53;;;1.00;;
52586;SDS011;38480;52.724;6.436;2023-08-08T09:44:47;4.60;;;0.83;;
52586;SDS011;38480;52.724;6.436;2023-08-08T09:47:14;3.90;;;0.97;;
52586;SDS011;38480;52.724;6.436;2023-08-08T09:49:40;6.90;;;1.07;;
52586;SDS011;38480;52.724;6.436;2023-08-08T09:52:07;4.43;;;1.10;;
52586;SDS011;38480;52.724;6.436;2023-08-08T09:54:33;12.17;;;1.90;;
52586;SDS011;38480;52.724;6.436;2023-08-08T09:56:59;5.83;;;1.53;;
52586;SDS011;38480;52.724;6.436;2023-08-08T09:59:25;8.73;;;1.70;;
52586;SDS011;38480;52.724;6.436;2023-08-08T10:01:51;8.57;;;1.73;;
52586;SDS011;38480;52.724;6.436;2023-08-08T10:04:18;7.93;;;1.83;;
52586;SDS011;38480;52.724;6.436;2023-08-08T10:06:44;8.20;;;1.77;;
52586;SDS011;38480;52.724;6.436;2023-08-08T10:09:10;5.13;;;1.53;;
52586;SDS011;38480;52.724;6.436;2023-08-08T10:11:36;6.23;;;1.60;;
52586;SDS011;38480;52.724;6.436;2023-08-08T10:14:02;7.70;;;1.47;;
52586;SDS011;38480;52.724;6.436;2023-08-08T10:16:31;8.40;;;1.47;;
52586;SDS011;38480;52.724;6.436;2023-08-08T10:19:00;4.53;;;1.37;;
52586;SDS011;38480;52.724;6.436;2023-08-08T10:21:27;7.00;;;1.33;;
52586;SDS011;38480;52.724;6.436;2023-08-08T10:26:28;3.93;;;0.93;;
52586;SDS011;38480;52.724;6.436;2023-08-08T10:28:55;7.33;;;1.57;;
52586;SDS011;38480;52.724;6.436;2023-08-08T10:31:21;5.27;;;1.20;;
52586;SDS011;38480;52.724;6.436;2023-08-08T10:33:48;4.70;;;1.20;;
52586;SDS011;38480;52.724;6.436;2023-08-08T10:36:14;7.87;;;1.30;;
52586;SDS011;38480;52.724;6.436;2023-08-08T10:38:44;6.00;;;1.33;;
52586;SDS011;38480;52.724;6.436;2023-08-08T10:41:16;7.50;;;1.67;;
52586;SDS011;38480;52.724;6.436;2023-08-08T10:43:52;9.73;;;1.20;;
52586;SDS011;38480;52.724;6.436;2023-08-08T10:48:51;7.57;;;1.87;;
52586;SDS011;38480;52.724;6.436;2023-08-08T10:51:18;7.27;;;1.27;;
52586;SDS011;38480;52.724;6.436;2023-08-08T10:53:44;7.53;;;1.57;;
52586;SDS011;38480;52.724;6.436;2023-08-08T10:56:12;4.13;;;1.43;;
52586;SDS011;38480;52.724;6.436;2023-08-08T10:58:39;4.50;;;1.30;;
52586;SDS011;38480;52.724;6.436;2023-08-08T11:01:05;6.37;;;1.73;;
52586;SDS011;38480;52.724;6.436;2023-08-08T11:03:36;3.60;;;1.13;;
52586;SDS011;38480;52.724;6.436;2023-08-08T11:06:03;4.67;;;1.30;;
52586;SDS011;38480;52.724;6.436;2023-08-08T11:08:31;10.03;;;1.50;;
52586;SDS011;38480;52.724;6.436;2023-08-08T11:10:57;4.17;;;1.23;;
52586;SDS011;38480;52.724;6.436;2023-08-08T11:13:24;3.70;;;1.17;;
52586;SDS011;38480;52.724;6.436;2023-08-08T11:15:50;5.47;;;2.10;;
52586;SDS011;38480;52.724;6.436;2023-08-08T11:18:16;3.37;;;1.20;;
52586;SDS011;38480;52.724;6.436;2023-08-08T11:20:42;4.17;;;1.50;;
52586;SDS011;38480;52.724;6.436;2023-08-08T11:23:09;5.83;;;1.47;;
52586;SDS011;38480;52.724;6.436;2023-08-08T11:25:39;7.17;;;1.40;;
52586;SDS011;38480;52.724;6.436;2023-08-08T11:28:05;4.70;;;1.17;;
52586;SDS011;38480;52.724;6.436;2023-08-08T11:30:34;3.50;;;1.10;;
52586;SDS011;38480;52.724;6.436;2023-08-08T11:33:00;8.07;;;1.20;;
52586;SDS011;38480;52.724;6.436;2023-08-08T11:35:26;5.23;;;1.43;;
52586;SDS011;38480;52.724;6.436;2023-08-08T11:37:53;5.07;;;1.43;;
52586;SDS011;38480;52.724;6.436;2023-08-08T11:40:20;5.10;;;1.23;;
52586;SDS011;38480;52.724;6.436;2023-08-08T11:42:46;4.07;;;1.30;;
52586;SDS011;38480;52.724;6.436;2023-08-08T11:45:15;4.00;;;1.30;;
52586;SDS011;38480;52.724;6.436;2023-08-08T11:47:41;8.53;;;1.80;;
52586;SDS011;38480;52.724;6.436;2023-08-08T11:50:08;6.40;;;1.70;;
52586;SDS011;38480;52.724;6.436;2023-08-08T11:52:35;4.20;;;1.50;;
52586;SDS011;38480;52.724;6.436;2023-08-08T11:55:01;4.30;;;1.90;;
52586;SDS011;38480;52.724;6.436;2023-08-08T11:57:27;6.73;;;1.80;;
52586;SDS011;38480;52.724;6.436;2023-08-08T11:59:54;6.47;;;1.53;;
52586;SDS011;38480;52.724;6.436;2023-08-08T12:02:20;5.87;;;2.00;;
52586;SDS011;38480;52.724;6.436;2023-08-08T12:04:46;6.93;;;1.90;;
52586;SDS011;38480;52.724;6.436;2023-08-08T12:07:12;8.10;;;1.83;;
52586;SDS011;38480;52.724;6.436;2023-08-08T12:09:38;4.73;;;1.30;;
52586;SDS011;38480;52.724;6.436;2023-08-08T12:12:05;5.30;;;1.50;;
52586;SDS011;38480;52.724;6.436;2023-08-08T12:14:38;27.63;;;3.03;;
52586;SDS011;38480;52.724;6.436;2023-08-08T12:17:04;8.10;;;1.90;;
52586;SDS011;38480;52.724;6.436;2023-08-08T12:19:30;10.23;;;1.80;;
52586;SDS011;38480;52.724;6.436;2023-08-08T12:21:56;8.10;;;1.70;;
52586;SDS011;38480;52.724;6.436;2023-08-08T12:24:22;6.00;;;1.60;;
52586;SDS011;38480;52.724;6.436;2023-08-08T12:26:48;4.50;;;1.63;;
52586;SDS011;38480;52.724;6.436;2023-08-08T12:29:14;4.90;;;1.53;;
52586;SDS011;38480;52.724;6.436;2023-08-08T12:31:40;7.37;;;1.37;;
52586;SDS011;38480;52.724;6.436;2023-08-08T12:34:06;8.30;;;1.67;;
52586;SDS011;38480;52.724;6.436;2023-08-08T12:36:33;4.40;;;1.17;;
52586;SDS011;38480;52.724;6.436;2023-08-08T12:38:59;8.60;;;1.40;;
52586;SDS011;38480;52.724;6.436;2023-08-08T12:41:25;5.60;;;1.40;;
52586;SDS011;38480;52.724;6.436;2023-08-08T12:43:51;6.00;;;1.80;;
52586;SDS011;38480;52.724;6.436;2023-08-08T12:46:17;3.83;;;1.23;;
52586;SDS011;38480;52.724;6.436;2023-08-08T12:48:43;4.20;;;1.40;;
52586;SDS011;38480;52.724;6.436;2023-08-08T12:51:09;2.80;;;1.07;;
52586;SDS011;38480;52.724;6.436;2023-08-08T12:53:36;4.70;;;1.10;;
52586;SDS011;38480;52.724;6.436;2023-08-08T12:56:02;5.47;;;1.40;;
52586;SDS011;38480;52.724;6.436;2023-08-08T12:58:28;4.87;;;1.17;;
52586;SDS011;38480;52.724;6.436;2023-08-08T13:00:54;6.97;;;1.17;;
52586;SDS011;38480;52.724;6.436;2023-08-08T13:03:20;6.00;;;1.27;;
52586;SDS011;38480;52.724;6.436;2023-08-08T13:05:46;2.20;;;0.90;;
52586;SDS011;38480;52.724;6.436;2023-08-08T13:08:12;4.33;;;1.10;;
52586;SDS011;38480;52.724;6.436;2023-08-08T13:10:39;6.57;;;1.40;;
52586;SDS011;38480;52.724;6.436;2023-08-08T13:13:05;6.30;;;1.10;;
52586;SDS011;38480;52.724;6.436;2023-08-08T13:15:32;7.80;;;1.67;;
52586;SDS011;38480;52.724;6.436;2023-08-08T13:17:58;7.17;;;1.80;;
52586;SDS011;38480;52.724;6.436;2023-08-08T13:20:27;7.73;;;1.50;;
52586;SDS011;38480;52.724;6.436;2023-08-08T13:22:53;5.47;;;1.30;;
52586;SDS011;38480;52.724;6.436;2023-08-08T13:25:19;6.23;;;1.10;;
52586;SDS011;38480;52.724;6.436;2023-08-08T13:27:45;5.20;;;1.40;;
52586;SDS011;38480;52.724;6.436;2023-08-08T13:30:12;3.30;;;1.10;;
52586;SDS011;38480;52.724;6.436;2023-08-08T13:32:41;5.10;;;1.40;;
52586;SDS011;38480;52.724;6.436;2023-08-08T13:35:07;6.97;;;2.00;;
52586;SDS011;38480;52.724;6.436;2023-08-08T13:37:33;4.57;;;1.30;;
52586;SDS011;38480;52.724;6.436;2023-08-08T13:39:59;4.67;;;1.50;;
52586;SDS011;38480;52.724;6.436;2023-08-08T13:42:25;8.53;;;1.93;;
52586;SDS011;38480;52.724;6.436;2023-08-08T13:44:51;8.20;;;1.50;;
52586;SDS011;38480;52.724;6.436;2023-08-08T13:47:17;5.70;;;1.70;;
52586;SDS011;38480;52.724;6.436;2023-08-08T13:49:43;5.70;;;1.57;;
52586;SDS011;38480;52.724;6.436;2023-08-08T13:52:09;3.87;;;1.47;;
52586;SDS011;38480;52.724;6.436;2023-08-08T13:54:36;6.10;;;1.63;;
52586;SDS011;38480;52.724;6.436;2023-08-08T13:57:02;3.13;;;1.33;;
52586;SDS011;38480;52.724;6.436;2023-08-08T13:59:28;5.40;;;1.30;;
52586;SDS011;38480;52.724;6.436;2023-08-08T14:01:54;7.03;;;1.20;;
52586;SDS011;38480;52.724;6.436;2023-08-08T14:04:20;18.10;;;1.30;;
52586;SDS011;38480;52.724;6.436;2023-08-08T14:06:46;4.73;;;1.23;;
52586;SDS011;38480;52.724;6.436;2023-08-08T14:09:12;5.60;;;1.43;;
52586;SDS011;38480;52.724;6.436;2023-08-08T14:11:38;4.80;;;1.03;;
52586;SDS011;38480;52.724;6.436;2023-08-08T14:14:04;3.70;;;1.20;;
52586;SDS011;38480;52.724;6.436;2023-08-08T14:16:30;4.00;;;1.30;;
52586;SDS011;38480;52.724;6.436;2023-08-08T14:18:57;3.03;;;1.20;;
52586;SDS011;38480;52.724;6.436;2023-08-08T14:21:23;8.37;;;1.30;;
52586;SDS011;38480;52.724;6.436;2023-08-08T14:23:49;6.13;;;1.30;;
52586;SDS011;38480;52.724;6.436;2023-08-08T14:26:15;6.43;;;1.10;;
52586;SDS011;38480;52.724;6.436;2023-08-08T14:28:41;5.87;;;1.23;;
52586;SDS011;38480;52.724;6.436;2023-08-08T14:31:07;3.50;;;1.07;;
52586;SDS011;38480;52.724;6.436;2023-08-08T14:33:33;4.63;;;1.50;;
52586;SDS011;38480;52.724;6.436;2023-08-08T14:36:00;4.60;;;1.40;;
52586;SDS011;38480;52.724;6.436;2023-08-08T14:38:26;5.60;;;1.27;;
52586;SDS011;38480;52.724;6.436;2023-08-08T14:40:52;4.77;;;1.30;;
52586;SDS011;38480;52.724;6.436;2023-08-08T14:43:18;9.13;;;1.50;;
52586;SDS011;38480;52.724;6.436;2023-08-08T14:45:45;3.30;;;0.90;;